Terminal Aerodrome Forecast
Issued by NWS Blacksburg, VA

Current Version | Previous Version | Graphics & Text | Print | Product List | Glossary On
Versions: 1 2 3 4 5 6 7 8 9 10 11 12 13
000
FTUS41 KRNK 251739
TAFBLF
TAF
KBLF 251739Z 2518/2618 24008KT P6SM SCT050
     FM252000 27008KT P6SM BKN050 BKN100
     FM260000 25006KT P6SM VCSH BKN050 BKN100
     FM260400 24004KT P6SM SCT060 BKN100
      TEMPO 2610/2612 5SM HZ=

USA.gov is the U.S. government's official web portal to all federal, state and local government web resources and services.